sensor_id;sensor_type;location;lat;lon;timestamp;pressure;altitude;pressure_sealevel;temperature;humidity
61618;BME280;47518;51.776;9.370;2022-12-10T00:01:52;99448.38;;;-0.12;88.99
61618;BME280;47518;51.776;9.370;2022-12-10T00:04:19;99447.28;;;-0.10;88.34
61618;BME280;47518;51.776;9.370;2022-12-10T00:06:45;99447.88;;;-0.06;89.28
61618;BME280;47518;51.776;9.370;2022-12-10T00:09:14;99438.16;;;-0.07;88.56
61618;BME280;47518;51.776;9.370;2022-12-10T00:11:40;99446.38;;;-0.20;88.68
61618;BME280;47518;51.776;9.370;2022-12-10T00:14:06;99450.44;;;-0.37;89.46
61618;BME280;47518;51.776;9.370;2022-12-10T00:16:33;99451.38;;;-0.59;88.89
61618;BME280;47518;51.776;9.370;2022-12-10T00:18:59;99444.66;;;-0.42;90.27
61618;BME280;47518;51.776;9.370;2022-12-10T00:21:27;99456.56;;;-0.46;89.32
61618;BME280;47518;51.776;9.370;2022-12-10T00:23:53;99446.25;;;-0.50;90.02
61618;BME280;47518;51.776;9.370;2022-12-10T00:26:22;99464.19;;;-0.41;88.46
61618;BME280;47518;51.776;9.370;2022-12-10T00:28:49;99457.03;;;-0.41;88.59
61618;BME280;47518;51.776;9.370;2022-12-10T00:31:17;99451.63;;;-0.62;86.39
61618;BME280;47518;51.776;9.370;2022-12-10T00:33:44;99453.59;;;-0.64;87.23
61618;BME280;47518;51.776;9.370;2022-12-10T00:36:12;99455.34;;;-0.85;88.00
61618;BME280;47518;51.776;9.370;2022-12-10T00:38:38;99459.25;;;-0.89;88.35
61618;BME280;47518;51.776;9.370;2022-12-10T00:41:04;99452.31;;;-0.80;87.77
61618;BME280;47518;51.776;9.370;2022-12-10T00:43:29;99447.91;;;-0.70;88.38
61618;BME280;47518;51.776;9.370;2022-12-10T00:45:55;99450.00;;;-0.85;89.43
61618;BME280;47518;51.776;9.370;2022-12-10T00:48:21;99444.50;;;-0.72;89.38
61618;BME280;47518;51.776;9.370;2022-12-10T00:51:05;99443.41;;;-0.70;89.37
61618;BME280;47518;51.776;9.370;2022-12-10T00:53:32;99461.66;;;-0.86;88.99
61618;BME280;47518;51.776;9.370;2022-12-10T00:55:58;99457.88;;;-0.83;88.57
61618;BME280;47518;51.776;9.370;2022-12-10T00:58:26;99453.53;;;-0.84;88.05
61618;BME280;47518;51.776;9.370;2022-12-10T01:00:52;99467.50;;;-0.81;88.07
61618;BME280;47518;51.776;9.370;2022-12-10T01:03:17;99458.38;;;-0.78;88.66
61618;BME280;47518;51.776;9.370;2022-12-10T01:05:43;99465.53;;;-0.79;89.01
61618;BME280;47518;51.776;9.370;2022-12-10T01:08:08;99467.09;;;-0.76;87.96
61618;BME280;47518;51.776;9.370;2022-12-10T01:10:34;99463.59;;;-0.77;87.66
61618;BME280;47518;51.776;9.370;2022-12-10T01:12:59;99469.41;;;-0.83;88.43
61618;BME280;47518;51.776;9.370;2022-12-10T01:15:24;99477.19;;;-0.80;89.07
61618;BME280;47518;51.776;9.370;2022-12-10T01:17:50;99472.06;;;-0.83;88.72
61618;BME280;47518;51.776;9.370;2022-12-10T01:20:15;99479.84;;;-0.80;88.73
61618;BME280;47518;51.776;9.370;2022-12-10T01:22:40;99486.25;;;-0.82;89.38
61618;BME280;47518;51.776;9.370;2022-12-10T01:25:06;99484.22;;;-0.79;88.66
61618;BME280;47518;51.776;9.370;2022-12-10T01:27:32;99487.72;;;-0.67;88.25
61618;BME280;47518;51.776;9.370;2022-12-10T01:29:57;99482.50;;;-0.69;88.58
61618;BME280;47518;51.776;9.370;2022-12-10T01:32:22;99477.28;;;-0.81;87.39
61618;BME280;47518;51.776;9.370;2022-12-10T01:34:48;99483.75;;;-0.95;89.16
61618;BME280;47518;51.776;9.370;2022-12-10T01:37:13;99488.22;;;-0.84;88.86
61618;BME280;47518;51.776;9.370;2022-12-10T01:39:38;99495.88;;;-0.80;87.98
61618;BME280;47518;51.776;9.370;2022-12-10T01:42:04;99492.22;;;-0.79;87.83
61618;BME280;47518;51.776;9.370;2022-12-10T01:47:07;99501.31;;;-0.81;88.31
61618;BME280;47518;51.776;9.370;2022-12-10T01:49:35;99497.56;;;-0.79;88.05
61618;BME280;47518;51.776;9.370;2022-12-10T01:52:01;99501.44;;;-0.83;88.45
61618;BME280;47518;51.776;9.370;2022-12-10T01:54:30;99496.09;;;-0.83;88.77
61618;BME280;47518;51.776;9.370;2022-12-10T01:57:18;99497.59;;;-0.90;89.25
61618;BME280;47518;51.776;9.370;2022-12-10T01:59:46;99496.47;;;-0.76;88.23
61618;BME280;47518;51.776;9.370;2022-12-10T02:08:08;99500.22;;;-0.68;88.58
61618;BME280;47518;51.776;9.370;2022-12-10T02:13:40;99499.28;;;-0.46;88.66
61618;BME280;47518;51.776;9.370;2022-12-10T02:16:17;99495.88;;;-0.48;87.77
61618;BME280;47518;51.776;9.370;2022-12-10T02:18:49;99491.88;;;-0.42;88.08
61618;BME280;47518;51.776;9.370;2022-12-10T02:21:25;99495.84;;;-0.37;86.91
61618;BME280;47518;51.776;9.370;2022-12-10T02:23:57;99492.00;;;-0.44;87.63
61618;BME280;47518;51.776;9.370;2022-12-10T02:26:42;99497.03;;;-0.62;88.10
61618;BME280;47518;51.776;9.370;2022-12-10T02:29:13;99494.28;;;-0.39;88.12
61618;BME280;47518;51.776;9.370;2022-12-10T02:31:45;99494.38;;;-0.30;87.11
61618;BME280;47518;51.776;9.370;2022-12-10T02:34:12;99493.09;;;-0.46;87.42
61618;BME280;47518;51.776;9.370;2022-12-10T02:36:42;99499.50;;;-0.38;88.77
61618;BME280;47518;51.776;9.370;2022-12-10T02:39:12;99496.69;;;-0.36;86.63
61618;BME280;47518;51.776;9.370;2022-12-10T02:41:41;99492.09;;;-0.13;87.25
61618;BME280;47518;51.776;9.370;2022-12-10T02:44:11;99492.44;;;-0.39;87.43
61618;BME280;47518;51.776;9.370;2022-12-10T02:46:38;99503.25;;;-0.40;89.23
61618;BME280;47518;51.776;9.370;2022-12-10T02:49:06;99496.28;;;-0.20;87.75
61618;BME280;47518;51.776;9.370;2022-12-10T02:51:33;99498.56;;;-0.16;88.15
61618;BME280;47518;51.776;9.370;2022-12-10T02:54:00;99499.69;;;-0.62;89.11
61618;BME280;47518;51.776;9.370;2022-12-10T02:56:42;99502.19;;;-0.49;89.69
61618;BME280;47518;51.776;9.370;2022-12-10T02:59:16;99501.50;;;-0.19;88.54
61618;BME280;47518;51.776;9.370;2022-12-10T03:04:38;99495.91;;;0.05;87.96
61618;BME280;47518;51.776;9.370;2022-12-10T03:07:11;99496.97;;;0.14;86.77
61618;BME280;47518;51.776;9.370;2022-12-10T03:09:45;99498.81;;;0.23;87.66
61618;BME280;47518;51.776;9.370;2022-12-10T03:12:25;99496.25;;;0.12;87.26
61618;BME280;47518;51.776;9.370;2022-12-10T03:14:57;99503.06;;;-0.16;88.05
61618;BME280;47518;51.776;9.370;2022-12-10T03:17:23;99500.25;;;-0.15;87.90
61618;BME280;47518;51.776;9.370;2022-12-10T03:19:50;99497.41;;;0.19;86.52
61618;BME280;47518;51.776;9.370;2022-12-10T03:22:17;99498.97;;;0.21;88.00
61618;BME280;47518;51.776;9.370;2022-12-10T03:24:43;99495.84;;;0.37;85.78
61618;BME280;47518;51.776;9.370;2022-12-10T03:27:10;99498.50;;;0.37;86.51
61618;BME280;47518;51.776;9.370;2022-12-10T03:29:39;99493.81;;;0.29;85.85
61618;BME280;47518;51.776;9.370;2022-12-10T03:32:07;99487.69;;;-0.03;86.84
61618;BME280;47518;51.776;9.370;2022-12-10T03:34:33;99490.69;;;0.04;88.19
61618;BME280;47518;51.776;9.370;2022-12-10T03:37:00;99483.31;;;0.38;86.86
61618;BME280;47518;51.776;9.370;2022-12-10T03:39:26;99485.22;;;0.56;85.15
61618;BME280;47518;51.776;9.370;2022-12-10T03:41:51;99484.53;;;0.54;86.17
61618;BME280;47518;51.776;9.370;2022-12-10T03:44:37;99491.13;;;0.50;86.45
61618;BME280;47518;51.776;9.370;2022-12-10T03:47:04;99482.81;;;0.53;85.86
61618;BME280;47518;51.776;9.370;2022-12-10T03:49:30;99484.59;;;0.43;86.55
61618;BME280;47518;51.776;9.370;2022-12-10T03:51:55;99496.75;;;0.47;86.11
61618;BME280;47518;51.776;9.370;2022-12-10T03:54:21;99490.34;;;0.39;86.32
61618;BME280;47518;51.776;9.370;2022-12-10T03:56:46;99497.41;;;0.40;87.02
61618;BME280;47518;51.776;9.370;2022-12-10T03:59:12;99491.78;;;0.43;86.57
61618;BME280;47518;51.776;9.370;2022-12-10T04:01:37;99502.41;;;0.33;86.19
61618;BME280;47518;51.776;9.370;2022-12-10T04:04:04;99502.94;;;0.27;86.88
61618;BME280;47518;51.776;9.370;2022-12-10T04:06:29;99510.31;;;-0.07;89.55
61618;BME280;47518;51.776;9.370;2022-12-10T04:08:55;99509.22;;;0.37;87.34
61618;BME280;47518;51.776;9.370;2022-12-10T04:11:20;99502.41;;;0.54;87.45
61618;BME280;47518;51.776;9.370;2022-12-10T04:13:45;99502.59;;;0.62;86.19
61618;BME280;47518;51.776;9.370;2022-12-10T04:16:32;99504.72;;;0.68;87.08
61618;BME280;47518;51.776;9.370;2022-12-10T04:19:02;99503.72;;;0.69;87.12
61618;BME280;47518;51.776;9.370;2022-12-10T04:21:29;99498.38;;;0.69;86.96
61618;BME280;47518;51.776;9.370;2022-12-10T04:24:19;99501.81;;;0.50;86.63
61618;BME280;47518;51.776;9.370;2022-12-10T04:27:07;99502.25;;;0.55;87.65
61618;BME280;47518;51.776;9.370;2022-12-10T04:29:34;99499.78;;;0.43;87.41
61618;BME280;47518;51.776;9.370;2022-12-10T04:31:59;99503.16;;;0.66;87.81
61618;BME280;47518;51.776;9.370;2022-12-10T04:34:24;99503.03;;;0.46;87.05
61618;BME280;47518;51.776;9.370;2022-12-10T04:36:51;99501.97;;;0.49;87.54
61618;BME280;47518;51.776;9.370;2022-12-10T04:39:16;99504.00;;;0.66;86.44
61618;BME280;47518;51.776;9.370;2022-12-10T04:41:44;99500.31;;;0.88;85.67
61618;BME280;47518;51.776;9.370;2022-12-10T04:44:10;99504.00;;;0.97;85.59
61618;BME280;47518;51.776;9.370;2022-12-10T04:46:36;99504.00;;;0.97;85.33
61618;BME280;47518;51.776;9.370;2022-12-10T04:49:03;99500.66;;;1.04;85.13
61618;BME280;47518;51.776;9.370;2022-12-10T04:51:28;99496.25;;;1.03;84.62
61618;BME280;47518;51.776;9.370;2022-12-10T04:53:54;99497.41;;;1.10;84.31
61618;BME280;47518;51.776;9.370;2022-12-10T04:56:19;99504.44;;;1.02;85.22
61618;BME280;47518;51.776;9.370;2022-12-10T04:58:44;99509.53;;;1.05;83.56
61618;BME280;47518;51.776;9.370;2022-12-10T05:01:10;99509.97;;;1.10;84.63
61618;BME280;47518;51.776;9.370;2022-12-10T05:03:38;99513.06;;;1.05;83.78
61618;BME280;47518;51.776;9.370;2022-12-10T05:06:07;99514.75;;;1.06;83.33
61618;BME280;47518;51.776;9.370;2022-12-10T05:08:34;99521.78;;;1.07;83.64
61618;BME280;47518;51.776;9.370;2022-12-10T05:24:57;99515.97;;;-0.21;90.38
61618;BME280;47518;51.776;9.370;2022-12-10T05:27:22;99515.59;;;0.04;90.19
61618;BME280;47518;51.776;9.370;2022-12-10T05:29:47;99522.44;;;0.18;87.43
61618;BME280;47518;51.776;9.370;2022-12-10T05:32:13;99521.31;;;0.41;86.68
61618;BME280;47518;51.776;9.370;2022-12-10T05:34:38;99521.97;;;0.54;85.69
61618;BME280;47518;51.776;9.370;2022-12-10T05:37:04;99532.72;;;0.64;85.73
61618;BME280;47518;51.776;9.370;2022-12-10T05:39:29;99531.25;;;0.50;85.27
61618;BME280;47518;51.776;9.370;2022-12-10T05:41:54;99534.28;;;0.67;85.11
61618;BME280;47518;51.776;9.370;2022-12-10T05:44:20;99529.78;;;0.46;84.57
61618;BME280;47518;51.776;9.370;2022-12-10T05:46:45;99536.16;;;0.76;83.98
61618;BME280;47518;51.776;9.370;2022-12-10T05:49:10;99535.38;;;0.85;83.21
61618;BME280;47518;51.776;9.370;2022-12-10T05:51:37;99532.56;;;0.86;84.19
61618;BME280;47518;51.776;9.370;2022-12-10T05:54:04;99538.84;;;0.76;83.35
61618;BME280;47518;51.776;9.370;2022-12-10T05:56:30;99547.94;;;0.94;82.85
61618;BME280;47518;51.776;9.370;2022-12-10T05:58:59;99532.97;;;0.92;83.50
61618;BME280;47518;51.776;9.370;2022-12-10T06:01:27;99538.75;;;0.87;83.06
61618;BME280;47518;51.776;9.370;2022-12-10T06:03:53;99545.09;;;0.86;82.54
61618;BME280;47518;51.776;9.370;2022-12-10T06:06:29;99547.63;;;0.87;82.89
61618;BME280;47518;51.776;9.370;2022-12-10T06:08:55;99549.69;;;0.74;81.90
61618;BME280;47518;51.776;9.370;2022-12-10T06:11:21;99554.75;;;0.77;82.27
61618;BME280;47518;51.776;9.370;2022-12-10T06:13:47;99550.03;;;0.91;82.98
61618;BME280;47518;51.776;9.370;2022-12-10T06:16:14;99547.94;;;0.94;83.13
61618;BME280;47518;51.776;9.370;2022-12-10T06:18:40;99552.66;;;0.81;82.95
61618;BME280;47518;51.776;9.370;2022-12-10T06:21:08;99554.09;;;0.85;82.31
61618;BME280;47518;51.776;9.370;2022-12-10T06:23:35;99551.94;;;0.79;83.43
61618;BME280;47518;51.776;9.370;2022-12-10T06:26:05;99551.56;;;0.83;82.30
61618;BME280;47518;51.776;9.370;2022-12-10T06:28:30;99550.09;;;0.79;81.73
61618;BME280;47518;51.776;9.370;2022-12-10T06:30:58;99546.53;;;0.69;80.94
61618;BME280;47518;51.776;9.370;2022-12-10T06:33:23;99550.09;;;0.70;82.29
61618;BME280;47518;51.776;9.370;2022-12-10T06:35:48;99554.47;;;0.80;82.65
61618;BME280;47518;51.776;9.370;2022-12-10T06:38:13;99555.16;;;0.73;82.72
61618;BME280;47518;51.776;9.370;2022-12-10T06:40:39;99554.75;;;0.77;81.92
61618;BME280;47518;51.776;9.370;2022-12-10T06:43:05;99551.00;;;0.90;81.91
61618;BME280;47518;51.776;9.370;2022-12-10T06:45:30;99570.66;;;0.79;81.99
61618;BME280;47518;51.776;9.370;2022-12-10T06:47:56;99561.66;;;0.80;81.04
61618;BME280;47518;51.776;9.370;2022-12-10T06:50:21;99568.69;;;0.81;82.03
61618;BME280;47518;51.776;9.370;2022-12-10T06:52:46;99568.97;;;0.78;82.19
61618;BME280;47518;51.776;9.370;2022-12-10T06:55:11;99572.13;;;0.62;82.16
61618;BME280;47518;51.776;9.370;2022-12-10T06:57:37;99572.56;;;0.67;82.62
61618;BME280;47518;51.776;9.370;2022-12-10T07:00:03;99578.63;;;0.69;82.48
61618;BME280;47518;51.776;9.370;2022-12-10T07:02:29;99581.06;;;0.72;82.23
61618;BME280;47518;51.776;9.370;2022-12-10T07:04:54;99575.00;;;0.70;82.53
61618;BME280;47518;51.776;9.370;2022-12-10T07:07:21;99575.03;;;0.80;82.40
61618;BME280;47518;51.776;9.370;2022-12-10T07:09:47;99575.16;;;0.78;82.16
61618;BME280;47518;51.776;9.370;2022-12-10T07:12:12;99572.56;;;0.67;82.40
61618;BME280;47518;51.776;9.370;2022-12-10T07:14:37;99576.91;;;0.38;83.71
61618;BME280;47518;51.776;9.370;2022-12-10T07:17:02;99581.72;;;0.44;83.35
61618;BME280;47518;51.776;9.370;2022-12-10T07:19:28;99580.03;;;0.43;83.28
61618;BME280;47518;51.776;9.370;2022-12-10T07:21:53;99594.81;;;0.68;83.71
61618;BME280;47518;51.776;9.370;2022-12-10T07:24:19;99587.91;;;0.65;83.22
61618;BME280;47518;51.776;9.370;2022-12-10T07:26:45;99588.09;;;0.52;83.95
61618;BME280;47518;51.776;9.370;2022-12-10T07:29:14;99594.88;;;0.56;83.18
61618;BME280;47518;51.776;9.370;2022-12-10T07:31:40;99601.13;;;0.46;82.99
61618;BME280;47518;51.776;9.370;2022-12-10T07:34:06;99599.44;;;0.45;83.62
61618;BME280;47518;51.776;9.370;2022-12-10T07:36:31;99602.66;;;0.39;84.02
61618;BME280;47518;51.776;9.370;2022-12-10T07:38:57;99602.53;;;0.40;83.19
61618;BME280;47518;51.776;9.370;2022-12-10T07:41:23;99600.63;;;0.73;83.04
61618;BME280;47518;51.776;9.370;2022-12-10T07:43:49;99601.09;;;0.57;83.10
61618;BME280;47518;51.776;9.370;2022-12-10T07:46:25;99604.38;;;0.81;82.76
61618;BME280;47518;51.776;9.370;2022-12-10T07:48:51;99605.91;;;0.63;82.73
61618;BME280;47518;51.776;9.370;2022-12-10T07:51:18;99607.44;;;0.35;84.03
61618;BME280;47518;51.776;9.370;2022-12-10T07:53:43;99606.72;;;0.01;84.96
61618;BME280;47518;51.776;9.370;2022-12-10T07:56:09;99612.81;;;0.24;84.32
61618;BME280;47518;51.776;9.370;2022-12-10T07:58:35;99605.66;;;0.24;83.55
61618;BME280;47518;51.776;9.370;2022-12-10T08:01:09;99610.16;;;-0.19;85.90
61618;BME280;47518;51.776;9.370;2022-12-10T08:03:35;99610.84;;;-0.06;85.57
61618;BME280;47518;51.776;9.370;2022-12-10T08:06:06;99610.38;;;0.21;84.57
61618;BME280;47518;51.776;9.370;2022-12-10T08:08:34;99615.44;;;0.35;83.60
61618;BME280;47518;51.776;9.370;2022-12-10T08:11:00;99612.91;;;0.54;83.34
61618;BME280;47518;51.776;9.370;2022-12-10T08:13:26;99615.38;;;0.67;83.57
61618;BME280;47518;51.776;9.370;2022-12-10T08:15:52;99624.31;;;0.77;82.31
61618;BME280;47518;51.776;9.370;2022-12-10T08:18:17;99619.53;;;0.81;83.38
61618;BME280;47518;51.776;9.370;2022-12-10T08:20:42;99623.88;;;0.93;81.42
61618;BME280;47518;51.776;9.370;2022-12-10T08:23:08;99620.66;;;0.99;82.29
61618;BME280;47518;51.776;9.370;2022-12-10T08:25:33;99620.00;;;1.07;82.23
61618;BME280;47518;51.776;9.370;2022-12-10T08:27:58;99622.13;;;1.13;81.67
61618;BME280;47518;51.776;9.370;2022-12-10T08:30:27;99616.06;;;1.11;82.46
61618;BME280;47518;51.776;9.370;2022-12-10T08:32:53;99628.50;;;1.22;81.13
61618;BME280;47518;51.776;9.370;2022-12-10T08:35:18;99618.78;;;1.21;80.88
61618;BME280;47518;51.776;9.370;2022-12-10T08:37:43;99626.56;;;1.03;80.98
61618;BME280;47518;51.776;9.370;2022-12-10T08:40:09;99626.34;;;0.85;81.62
61618;BME280;47518;51.776;9.370;2022-12-10T08:42:34;99631.13;;;0.81;82.39
61618;BME280;47518;51.776;9.370;2022-12-10T08:45:00;99630.38;;;0.79;82.71
61618;BME280;47518;51.776;9.370;2022-12-10T08:47:26;99629.22;;;0.93;82.38
61618;BME280;47518;51.776;9.370;2022-12-10T08:49:52;99631.25;;;1.31;81.84
61618;BME280;47518;51.776;9.370;2022-12-10T08:52:17;99634.75;;;1.32;81.10
61618;BME280;47518;51.776;9.370;2022-12-10T08:54:42;99630.28;;;1.42;80.46
61618;BME280;47518;51.776;9.370;2022-12-10T08:57:08;99624.97;;;1.52;79.07
61618;BME280;47518;51.776;9.370;2022-12-10T08:59:33;99634.47;;;1.65;79.34
61618;BME280;47518;51.776;9.370;2022-12-10T09:01:58;99634.19;;;1.68;79.35
61618;BME280;47518;51.776;9.370;2022-12-10T09:04:23;99631.13;;;1.83;77.94
61618;BME280;47518;51.776;9.370;2022-12-10T09:06:49;99630.84;;;1.86;77.72
61618;BME280;47518;51.776;9.370;2022-12-10T09:09:15;99635.50;;;1.93;77.13
61618;BME280;47518;51.776;9.370;2022-12-10T09:11:41;99639.06;;;2.03;76.72
61618;BME280;47518;51.776;9.370;2022-12-10T09:14:06;99646.25;;;2.03;76.43
61618;BME280;47518;51.776;9.370;2022-12-10T09:16:34;99645.00;;;1.97;76.39
61618;BME280;47518;51.776;9.370;2022-12-10T09:19:01;99639.41;;;1.70;76.32
61618;BME280;47518;51.776;9.370;2022-12-10T09:21:27;99643.63;;;1.72;77.29
61618;BME280;47518;51.776;9.370;2022-12-10T09:23:52;99643.56;;;1.93;76.67
61618;BME280;47518;51.776;9.370;2022-12-10T09:26:19;99644.28;;;2.05;76.61
61618;BME280;47518;51.776;9.370;2022-12-10T09:28:46;99651.34;;;2.06;75.38
61618;BME280;47518;51.776;9.370;2022-12-10T09:31:13;99656.19;;;2.22;75.97
61618;BME280;47518;51.776;9.370;2022-12-10T09:33:39;99653.34;;;2.43;74.41
61618;BME280;47518;51.776;9.370;2022-12-10T09:36:06;99656.03;;;2.52;75.12
61618;BME280;47518;51.776;9.370;2022-12-10T09:38:34;99651.94;;;2.58;74.67
61618;BME280;47518;51.776;9.370;2022-12-10T09:41:02;99649.97;;;2.50;74.37
61618;BME280;47518;51.776;9.370;2022-12-10T09:51:45;99656.47;;;2.48;73.89
61618;BME280;47518;51.776;9.370;2022-12-10T09:54:19;99652.78;;;2.39;74.22
61618;BME280;47518;51.776;9.370;2022-12-10T09:56:48;99651.09;;;2.38;74.26
61618;BME280;47518;51.776;9.370;2022-12-10T09:59:39;99653.50;;;2.51;74.73
61618;BME280;47518;51.776;9.370;2022-12-10T10:04:43;99655.31;;;2.31;73.79
61618;BME280;47518;51.776;9.370;2022-12-10T10:07:18;99651.66;;;2.32;73.62
61618;BME280;47518;51.776;9.370;2022-12-10T10:09:44;99648.09;;;2.31;74.82
61618;BME280;47518;51.776;9.370;2022-12-10T10:12:13;99652.78;;;2.49;74.08
61618;BME280;47518;51.776;9.370;2022-12-10T10:14:39;99650.25;;;2.47;74.16
61618;BME280;47518;51.776;9.370;2022-12-10T10:17:13;99649.53;;;2.36;73.82
61618;BME280;47518;51.776;9.370;2022-12-10T10:19:42;99648.25;;;2.40;73.83
61618;BME280;47518;51.776;9.370;2022-12-10T10:22:10;99645.72;;;2.28;74.76
61618;BME280;47518;51.776;9.370;2022-12-10T10:24:40;99640.38;;;2.48;73.95
61618;BME280;47518;51.776;9.370;2022-12-10T10:27:15;99644.03;;;2.56;74.10
61618;BME280;47518;51.776;9.370;2022-12-10T10:29:42;99642.06;;;2.49;74.14
61618;BME280;47518;51.776;9.370;2022-12-10T10:32:13;99641.91;;;2.60;71.88
61618;BME280;47518;51.776;9.370;2022-12-10T10:34:40;99650.53;;;2.34;72.58
61618;BME280;47518;51.776;9.370;2022-12-10T10:37:05;99649.25;;;2.29;73.04
61618;BME280;47518;51.776;9.370;2022-12-10T10:39:33;99649.06;;;1.92;73.19
61618;BME280;47518;51.776;9.370;2022-12-10T10:42:08;99651.19;;;2.08;73.67
61618;BME280;47518;51.776;9.370;2022-12-10T10:44:36;99649.81;;;2.23;74.05
61618;BME280;47518;51.776;9.370;2022-12-10T10:47:23;99650.22;;;2.28;74.45
61618;BME280;47518;51.776;9.370;2022-12-10T10:49:48;99655.06;;;2.34;73.16
61618;BME280;47518;51.776;9.370;2022-12-10T10:52:15;99652.78;;;2.39;72.26
61618;BME280;47518;51.776;9.370;2022-12-10T10:54:44;99646.84;;;2.26;72.65
61618;BME280;47518;51.776;9.370;2022-12-10T10:59:56;99649.25;;;2.29;71.64
61618;BME280;47518;51.776;9.370;2022-12-10T11:02:36;99651.78;;;2.30;72.95
61618;BME280;47518;51.776;9.370;2022-12-10T11:05:22;99652.38;;;2.34;73.16
61618;BME280;47518;51.776;9.370;2022-12-10T11:07:58;99656.72;;;2.16;73.64
61618;BME280;47518;51.776;9.370;2022-12-10T11:10:24;99658.69;;;2.14;73.76
61618;BME280;47518;51.776;9.370;2022-12-10T11:13:03;99648.13;;;2.22;73.77
61618;BME280;47518;51.776;9.370;2022-12-10T11:21:17;99655.22;;;1.83;74.19
61618;BME280;47518;51.776;9.370;2022-12-10T11:23:46;99661.47;;;1.93;74.58
61618;BME280;47518;51.776;9.370;2022-12-10T11:35:07;99658.13;;;2.10;73.36
61618;BME280;47518;51.776;9.370;2022-12-10T11:49:28;99657.53;;;2.07;72.25
61618;BME280;47518;51.776;9.370;2022-12-10T11:54:56;99656.38;;;1.90;72.91
61618;BME280;47518;51.776;9.370;2022-12-10T12:00:38;99663.16;;;1.94;72.00
61618;BME280;47518;51.776;9.370;2022-12-10T12:14:20;99668.28;;;1.97;73.69
61618;BME280;47518;51.776;9.370;2022-12-10T12:16:54;99665.69;;;1.95;72.26
61618;BME280;47518;51.776;9.370;2022-12-10T12:19:28;99664.31;;;2.01;72.38
61618;BME280;47518;51.776;9.370;2022-12-10T12:22:00;99667.66;;;1.84;71.60
61618;BME280;47518;51.776;9.370;2022-12-10T12:24:34;99668.75;;;1.71;70.53
61618;BME280;47518;51.776;9.370;2022-12-10T12:27:09;99667.66;;;1.84;70.77
61618;BME280;47518;51.776;9.370;2022-12-10T12:29:44;99664.72;;;1.96;72.26
61618;BME280;47518;51.776;9.370;2022-12-10T12:32:20;99664.84;;;1.95;72.85
61618;BME280;47518;51.776;9.370;2022-12-10T12:34:50;99667.69;;;2.03;72.12
61618;BME280;47518;51.776;9.370;2022-12-10T12:37:18;99670.84;;;1.68;70.03
61618;BME280;47518;51.776;9.370;2022-12-10T12:40:00;99668.88;;;1.70;72.57
61618;BME280;47518;51.776;9.370;2022-12-10T12:42:36;99679.84;;;1.57;70.95
61618;BME280;47518;51.776;9.370;2022-12-10T12:45:11;99675.13;;;1.40;71.08
61618;BME280;47518;51.776;9.370;2022-12-10T12:48:04;99676.03;;;1.60;70.83
61618;BME280;47518;51.776;9.370;2022-12-10T12:53:23;99677.25;;;1.46;71.23
61618;BME280;47518;51.776;9.370;2022-12-10T13:01:35;99675.19;;;1.29;73.25
61618;BME280;47518;51.776;9.370;2022-12-10T13:04:04;99670.44;;;0.91;74.01
61618;BME280;47518;51.776;9.370;2022-12-10T13:06:36;99678.69;;;0.99;72.75
61618;BME280;47518;51.776;9.370;2022-12-10T13:09:25;99681.16;;;1.11;72.58
61618;BME280;47518;51.776;9.370;2022-12-10T13:18:01;99688.53;;;1.19;72.50
61618;BME280;47518;51.776;9.370;2022-12-10T13:26:23;99693.09;;;0.86;74.84
61618;BME280;47518;51.776;9.370;2022-12-10T13:28:50;99694.88;;;0.97;75.32
61618;BME280;47518;51.776;9.370;2022-12-10T13:31:21;99689.94;;;1.23;73.88
61618;BME280;47518;51.776;9.370;2022-12-10T13:33:54;99691.72;;;1.34;74.83
61618;BME280;47518;51.776;9.370;2022-12-10T13:39:35;99700.19;;;1.39;71.58
61618;BME280;47518;51.776;9.370;2022-12-10T13:42:29;99692.41;;;1.36;73.45
61618;BME280;47518;51.776;9.370;2022-12-10T13:48:26;99706.78;;;1.04;72.14
61618;BME280;47518;51.776;9.370;2022-12-10T14:04:27;99721.47;;;0.46;74.13
61618;BME280;47518;51.776;9.370;2022-12-10T14:06:57;99711.00;;;0.11;74.97
61618;BME280;47518;51.776;9.370;2022-12-10T14:09:34;99714.44;;;0.13;74.04
61618;BME280;47518;51.776;9.370;2022-12-10T14:12:06;99717.72;;;0.05;77.03
61618;BME280;47518;51.776;9.370;2022-12-10T14:14:37;99709.94;;;0.13;76.08
61618;BME280;47518;51.776;9.370;2022-12-10T14:17:09;99720.97;;;0.20;74.59
61618;BME280;47518;51.776;9.370;2022-12-10T14:19:36;99716.50;;;0.52;73.83
61618;BME280;47518;51.776;9.370;2022-12-10T14:22:05;99711.53;;;0.48;74.10
61618;BME280;47518;51.776;9.370;2022-12-10T14:24:34;99714.59;;;0.32;73.68
61618;BME280;47518;51.776;9.370;2022-12-10T14:27:19;99716.19;;;0.67;72.30
61618;BME280;47518;51.776;9.370;2022-12-10T14:29:48;99715.81;;;0.92;72.63
61618;BME280;47518;51.776;9.370;2022-12-10T14:32:15;99722.16;;;0.91;71.14
61618;BME280;47518;51.776;9.370;2022-12-10T14:34:43;99728.03;;;0.85;71.35
61618;BME280;47518;51.776;9.370;2022-12-10T14:37:10;99720.44;;;0.90;71.77
61618;BME280;47518;51.776;9.370;2022-12-10T14:39:38;99717.78;;;0.90;70.99
61618;BME280;47518;51.776;9.370;2022-12-10T14:42:05;99714.97;;;0.92;71.73
61618;BME280;47518;51.776;9.370;2022-12-10T14:44:31;99725.00;;;0.78;72.97
61618;BME280;47518;51.776;9.370;2022-12-10T14:47:05;99722.63;;;0.96;73.41
61618;BME280;47518;51.776;9.370;2022-12-10T14:49:31;99727.44;;;1.02;73.34
61618;BME280;47518;51.776;9.370;2022-12-10T14:51:56;99727.69;;;0.78;71.32
61618;BME280;47518;51.776;9.370;2022-12-10T14:57:16;99731.50;;;1.17;72.10
61618;BME280;47518;51.776;9.370;2022-12-10T14:59:48;99734.50;;;1.24;71.61
61618;BME280;47518;51.776;9.370;2022-12-10T15:02:22;99739.28;;;1.21;72.03
61618;BME280;47518;51.776;9.370;2022-12-10T15:04:50;99743.84;;;1.09;70.84
61618;BME280;47518;51.776;9.370;2022-12-10T15:07:20;99734.44;;;0.94;71.94
61618;BME280;47518;51.776;9.370;2022-12-10T15:09:48;99741.47;;;1.15;71.25
61618;BME280;47518;51.776;9.370;2022-12-10T15:12:22;99742.06;;;0.98;70.10
61618;BME280;47518;51.776;9.370;2022-12-10T15:14:49;99748.66;;;0.94;70.78
61618;BME280;47518;51.776;9.370;2022-12-10T15:17:36;99752.97;;;1.06;71.72
61618;BME280;47518;51.776;9.370;2022-12-10T15:20:02;99755.75;;;1.16;70.07
61618;BME280;47518;51.776;9.370;2022-12-10T15:22:28;99753.84;;;1.07;69.86
61618;BME280;47518;51.776;9.370;2022-12-10T15:24:53;99762.44;;;1.10;70.09